Main page
METAR-TAF:

METAR-TAF

Airports :

Weeze Airport

Weeze, Germany

latitude: 51-36-09N, longitude: 006-08-32E, elevation: 32 m

Current weather observation

The report was made 13 minutes ago, at 06:50 UTC
Wind 7 kt from the South, varying between South/Southeast and Southwest
Temperature 14°C
Humidity 67%
Pressure 1018 hPa
Visibility 10 km or more
no clouds below 1500 m and no cumulonimbus

METAR: EDLV 130650Z 19007KT 160V230 CAVOK 14/08 Q1018

Time: 09:03 (07:03 UTC)

Forecast

The report was made 2 hours and 3 minutes ago, at 05:00 UTC
Forecast valid from 13 at 06 UTC to 14 at 06 UTC
Wind 3 kt from variable directions
Visibility 10 km or more
no clouds below 1500 m and no cumulonimbus
Becoming
from 13 at 06 UTC to 13 at 09 UTC
Wind 8 kt from the South/Southwest
Becoming
from 13 at 18 UTC to 13 at 21 UTC
Wind 4 kt from the South/Southeast

TAF: EDLV 130500Z 1306/1406 VRB03KT CAVOK BECMG 1306/1309 21008KT BECMG 1318/1321 15004KT

Weather observations and forecasts of more than 4000 airports (METAR and TAF reports).

The available stations are represented by yellow and red dots on the map.

Hover mouse over dot to see the name of the station.

Then click to see weather observations and forecasts.

To change the map : click on the green buttons with a black cross to zoom in, on the green button with a dash to zoom out, or on the green arrows for adjacent maps.


METAR-TAF: